Time;durP1;ratioP1;P1;durP2;ratioP2;P2;SDS_P1;SDS_P2;PMS_P1;PMS_P2;Temp;Humidity;BMP_temperature;BMP_pressure;BME280_temperature;BME280_humidity;BME280_pressure;Samples;Min_cycle;Max_cycle;Signal;HPM_P1;HPM_P2
2022/01/09 00:00:29;;;;;;;29.88;22.38;;;;;;;;;;5009982;28;20132;-78
2022/01/09 00:02:55;;;;;;;28.40;22.48;;;;;;;;;;5011820;28;20080;-80
2022/01/09 00:05:21;;;;;;;31.55;23.58;;;;;;;;;;5007165;28;20100;-77
2022/01/09 00:07:47;;;;;;;30.45;23.67;;;;;;;;;;5022940;28;20755;-76
2022/01/09 00:10:14;;;;;;;32.80;23.27;;;;;;;;;;5029244;28;20045;-79
2022/01/09 00:12:41;;;;;;;34.30;24.45;;;;;;;;;;5027686;28;20050;-78
2022/01/09 00:15:07;;;;;;;33.15;23.45;;;;;;;;;;5012064;28;20523;-77
2022/01/09 00:17:33;;;;;;;31.30;22.52;;;;;;;;;;5009363;28;20049;-77
2022/01/09 00:19:59;;;;;;;29.05;23.02;;;;;;;;;;5024784;28;20410;-78
2022/01/09 00:25:25;;;;;;;35.78;24.23;;;;;;;;;;4977055;28;20037;-78
2022/01/09 00:27:51;;;;;;;31.00;24.25;;;;;;;;;;5029464;28;20531;-78
2022/01/09 00:30:18;;;;;;;30.48;22.52;;;;;;;;;;5009772;28;20046;-77
2022/01/09 00:32:44;;;;;;;28.88;21.02;;;;;;;;;;5029221;28;20045;-77
2022/01/09 00:35:11;;;;;;;30.73;21.40;;;;;;;;;;5026215;28;20045;-77
2022/01/09 00:37:37;;;;;;;30.13;23.42;;;;;;;;;;5028930;28;20762;-77
2022/01/09 00:40:04;;;;;;;25.48;20.00;;;;;;;;;;5027330;28;20374;-77
2022/01/09 00:42:30;;;;;;;27.88;23.70;;;;;;;;;;5026907;28;20045;-78
2022/01/09 00:44:56;;;;;;;30.48;23.90;;;;;;;;;;5027198;28;20060;-77
2022/01/09 00:47:22;;;;;;;35.15;24.58;;;;;;;;;;5026346;28;20053;-76
2022/01/09 00:49:49;;;;;;;30.13;23.67;;;;;;;;;;5027054;28;20504;-81
2022/01/09 00:52:15;;;;;;;27.48;20.95;;;;;;;;;;5026739;28;20053;-83
2022/01/09 00:54:41;;;;;;;28.00;21.90;;;;;;;;;;5011219;28;20052;-81
2022/01/09 00:57:07;;;;;;;24.35;19.88;;;;;;;;;;5027945;28;20856;-85
2022/01/09 00:59:33;;;;;;;24.50;20.55;;;;;;;;;;5027026;28;20037;-83
2022/01/09 01:01:59;;;;;;;23.58;20.05;;;;;;;;;;5027655;28;20046;-84
2022/01/09 01:04:25;;;;;;;26.10;22.27;;;;;;;;;;5009537;28;20042;-80
2022/01/09 01:06:51;;;;;;;26.38;21.80;;;;;;;;;;5027363;28;20045;-82
2022/01/09 01:09:20;;;;;;;26.00;20.95;;;;;;;;;;5026839;28;20042;-84
2022/01/09 01:11:46;;;;;;;25.88;21.92;;;;;;;;;;5009484;28;20038;-80
2022/01/09 01:14:12;;;;;;;22.73;18.92;;;;;;;;;;4993154;28;20037;-84
2022/01/09 01:16:39;;;;;;;26.75;21.00;;;;;;;;;;5026593;28;20050;-83
2022/01/09 01:19:06;;;;;;;25.58;21.60;;;;;;;;;;5026946;28;20053;-82
2022/01/09 01:21:32;;;;;;;22.85;18.75;;;;;;;;;;5022477;28;20069;-83
2022/01/09 01:23:59;;;;;;;27.42;19.25;;;;;;;;;;5026137;28;20060;-81
2022/01/09 01:26:25;;;;;;;22.65;20.27;;;;;;;;;;5025209;28;20485;-83
2022/01/09 01:28:51;;;;;;;24.55;19.55;;;;;;;;;;5027682;28;20053;-83
2022/01/09 01:31:17;;;;;;;27.02;20.50;;;;;;;;;;5024930;28;20037;-85
2022/01/09 01:33:43;;;;;;;23.02;19.88;;;;;;;;;;5028133;28;20057;-81
2022/01/09 01:36:09;;;;;;;24.50;19.95;;;;;;;;;;5009730;28;20670;-84
2022/01/09 01:38:35;;;;;;;24.77;21.35;;;;;;;;;;5025493;28;20038;-83
2022/01/09 01:41:01;;;;;;;21.95;19.30;;;;;;;;;;5027780;28;20052;-79
2022/01/09 01:43:27;;;;;;;23.40;19.13;;;;;;;;;;5026173;28;20042;-84
2022/01/09 01:45:54;;;;;;;24.15;18.83;;;;;;;;;;5027696;28;20433;-83
2022/01/09 01:48:20;;;;;;;21.38;16.25;;;;;;;;;;5026358;28;20071;-84
2022/01/09 01:50:46;;;;;;;24.98;19.95;;;;;;;;;;5025995;28;20049;-84
2022/01/09 01:53:18;;;;;;;21.08;16.40;;;;;;;;;;5025388;28;20041;-80
2022/01/09 01:55:47;;;;;;;21.67;19.00;;;;;;;;;;5027690;28;20100;-78
2022/01/09 01:58:13;;;;;;;22.55;18.52;;;;;;;;;;5028003;28;20113;-78
2022/01/09 02:00:40;;;;;;;25.52;20.08;;;;;;;;;;5024429;28;20076;-79
2022/01/09 02:03:06;;;;;;;23.73;19.05;;;;;;;;;;5010576;28;20498;-79
2022/01/09 02:05:32;;;;;;;27.85;21.23;;;;;;;;;;5006101;28;20041;-79
2022/01/09 02:08:00;;;;;;;22.70;15.98;;;;;;;;;;5027753;28;20129;-78
2022/01/09 02:10:26;;;;;;;25.65;21.27;;;;;;;;;;5024759;28;20103;-78
2022/01/09 02:12:55;;;;;;;27.30;20.30;;;;;;;;;;5027241;28;20049;-79
2022/01/09 02:15:32;;;;;;;23.75;19.33;;;;;;;;;;5026507;28;20401;-78
2022/01/09 02:17:58;;;;;;;28.50;18.42;;;;;;;;;;5025014;28;20062;-80
2022/01/09 02:20:24;;;;;;;29.67;22.08;;;;;;;;;;5021681;28;20517;-78
2022/01/09 02:22:50;;;;;;;26.15;19.60;;;;;;;;;;5024119;28;20041;-79
2022/01/09 02:25:16;;;;;;;34.20;22.50;;;;;;;;;;5010313;28;20060;-78
2022/01/09 02:27:42;;;;;;;29.27;21.17;;;;;;;;;;5026180;28;20487;-80
2022/01/09 02:30:09;;;;;;;32.85;22.90;;;;;;;;;;5008074;28;20077;-78
2022/01/09 02:32:35;;;;;;;36.72;23.65;;;;;;;;;;5026965;28;20042;-77
2022/01/09 02:35:01;;;;;;;38.95;22.85;;;;;;;;;;5024404;28;20041;-80
2022/01/09 02:37:27;;;;;;;36.03;23.55;;;;;;;;;;5027312;28;20173;-80
2022/01/09 02:39:53;;;;;;;39.13;24.10;;;;;;;;;;5025056;28;20046;-79
2022/01/09 02:42:19;;;;;;;39.72;24.67;;;;;;;;;;5014070;28;20046;-79
2022/01/09 02:44:45;;;;;;;35.40;22.58;;;;;;;;;;5019931;28;20594;-77
2022/01/09 02:47:11;;;;;;;35.92;23.52;;;;;;;;;;5009424;28;20156;-79
2022/01/09 02:49:38;;;;;;;30.98;20.45;;;;;;;;;;5022686;28;20494;-78
2022/01/09 02:52:10;;;;;;;33.00;21.60;;;;;;;;;;5008143;28;20678;-78
2022/01/09 02:57:21;;;;;;;29.23;19.10;;;;;;;;;;5025649;28;20504;-79
2022/01/09 02:59:47;;;;;;;44.88;25.33;;;;;;;;;;5020687;28;20134;-78
2022/01/09 03:02:13;;;;;;;39.17;24.08;;;;;;;;;;5025494;28;20050;-78
2022/01/09 03:04:39;;;;;;;36.05;22.17;;;;;;;;;;5025504;28;20056;-78
2022/01/09 03:07:05;;;;;;;37.90;22.10;;;;;;;;;;5008784;28;20544;-78
2022/01/09 03:09:32;;;;;;;37.45;20.65;;;;;;;;;;5025719;28;20176;-78
2022/01/09 03:11:58;;;;;;;34.42;21.65;;;;;;;;;;5027733;28;20605;-78
2022/01/09 03:14:25;;;;;;;40.08;24.77;;;;;;;;;;5029219;28;20049;-77
2022/01/09 03:16:51;;;;;;;49.72;27.75;;;;;;;;;;5020828;28;20080;-78
2022/01/09 03:19:17;;;;;;;49.10;25.98;;;;;;;;;;5028110;28;20038;-84
2022/01/09 03:21:43;;;;;;;49.95;28.10;;;;;;;;;;4997174;28;20045;-81
2022/01/09 03:24:09;;;;;;;68.95;30.50;;;;;;;;;;5028181;28;20049;-87
2022/01/09 03:26:35;;;;;;;61.95;30.75;;;;;;;;;;5029017;28;20084;-85
2022/01/09 03:29:01;;;;;;;45.97;23.67;;;;;;;;;;5028302;28;20057;-86
2022/01/09 03:31:27;;;;;;;71.18;33.15;;;;;;;;;;5027971;28;20058;-81
2022/01/09 03:33:53;;;;;;;61.45;28.85;;;;;;;;;;4998432;28;20081;-85
2022/01/09 03:36:19;;;;;;;59.22;28.50;;;;;;;;;;5027831;28;20405;-85
2022/01/09 03:38:45;;;;;;;69.45;33.15;;;;;;;;;;4996019;28;20568;-82
2022/01/09 03:41:11;;;;;;;45.67;23.70;;;;;;;;;;5027767;28;20517;-84
2022/01/09 03:43:37;;;;;;;50.45;26.38;;;;;;;;;;5011659;28;20493;-87
2022/01/09 03:46:03;;;;;;;66.07;30.83;;;;;;;;;;5028556;28;20503;-80
2022/01/09 03:48:30;;;;;;;55.33;26.33;;;;;;;;;;5017657;28;20493;-82
2022/01/09 03:50:56;;;;;;;50.60;22.45;;;;;;;;;;5030202;28;20053;-81
2022/01/09 03:53:23;;;;;;;40.38;18.05;;;;;;;;;;5027452;28;20083;-82
2022/01/09 03:55:49;;;;;;;44.60;17.23;;;;;;;;;;5030320;28;20128;-85
2022/01/09 03:58:15;;;;;;;35.15;13.35;;;;;;;;;;5027835;28;20052;-82
2022/01/09 04:00:41;;;;;;;49.33;13.07;;;;;;;;;;5027285;28;20491;-84
2022/01/09 04:03:07;;;;;;;42.47;11.63;;;;;;;;;;5028786;28;20180;-84
2022/01/09 04:05:33;;;;;;;34.92;7.13;;;;;;;;;;5016027;28;20068;-82
2022/01/09 04:07:59;;;;;;;33.60;7.63;;;;;;;;;;5004258;28;20132;-80
2022/01/09 04:10:29;;;;;;;46.22;7.00;;;;;;;;;;5008698;28;20509;-82
2022/01/09 04:12:59;;;;;;;44.15;6.35;;;;;;;;;;5029185;28;20049;-81
2022/01/09 04:15:25;;;;;;;35.85;5.05;;;;;;;;;;5028026;28;20497;-80
2022/01/09 04:17:52;;;;;;;40.85;5.05;;;;;;;;;;5028632;28;20052;-83
2022/01/09 04:20:19;;;;;;;29.23;4.35;;;;;;;;;;4994877;28;20049;-81
2022/01/09 04:22:45;;;;;;;38.25;4.57;;;;;;;;;;5025852;28;20128;-83
2022/01/09 04:25:11;;;;;;;31.90;5.10;;;;;;;;;;5027291;28;20523;-80
2022/01/09 04:27:37;;;;;;;37.05;4.43;;;;;;;;;;5009525;28;20054;-81
2022/01/09 04:30:04;;;;;;;46.50;4.38;;;;;;;;;;5028989;28;20139;-80
2022/01/09 04:32:30;;;;;;;36.33;4.00;;;;;;;;;;5029077;28;20175;-86
2022/01/09 04:34:57;;;;;;;37.42;4.45;;;;;;;;;;5034628;28;20406;-83
2022/01/09 04:37:23;;;;;;;53.60;5.57;;;;;;;;;;5025539;28;20045;-87
2022/01/09 04:39:51;;;;;;;48.30;5.85;;;;;;;;;;5027872;28;20405;-83
2022/01/09 04:42:17;;;;;;;36.63;4.88;;;;;;;;;;5027956;28;20049;-81
2022/01/09 04:44:44;;;;;;;32.60;4.38;;;;;;;;;;5012736;28;20052;-79
2022/01/09 04:47:14;;;;;;;35.00;4.47;;;;;;;;;;4994437;28;20047;-82
2022/01/09 04:49:44;;;;;;;55.97;5.32;;;;;;;;;;5023417;28;20127;-84
2022/01/09 04:52:17;;;;;;;41.80;4.90;;;;;;;;;;5002686;28;20521;-80
2022/01/09 04:54:44;;;;;;;38.27;5.50;;;;;;;;;;5025458;28;20049;-80
2022/01/09 04:57:10;;;;;;;45.85;5.88;;;;;;;;;;5027019;28;20838;-80
2022/01/09 04:59:36;;;;;;;48.72;5.93;;;;;;;;;;5028291;28;20041;-79
2022/01/09 05:02:02;;;;;;;65.43;6.35;;;;;;;;;;5008974;28;20060;-79
2022/01/09 05:04:29;;;;;;;54.35;6.03;;;;;;;;;;5028000;28;20041;-81
2022/01/09 05:06:55;;;;;;;58.42;7.25;;;;;;;;;;5026475;28;20516;-79
2022/01/09 05:09:21;;;;;;;70.70;7.15;;;;;;;;;;5010626;28;20057;-81
2022/01/09 05:11:47;;;;;;;84.43;8.50;;;;;;;;;;5026245;28;20116;-79
2022/01/09 05:14:13;;;;;;;61.97;7.50;;;;;;;;;;5028154;28;20073;-81
2022/01/09 05:16:43;;;;;;;80.60;8.65;;;;;;;;;;5026663;28;20600;-79
2022/01/09 05:19:17;;;;;;;66.95;8.10;;;;;;;;;;5027211;28;20079;-82
2022/01/09 05:21:43;;;;;;;62.40;8.05;;;;;;;;;;5028061;28;20049;-84
2022/01/09 05:24:09;;;;;;;70.28;7.82;;;;;;;;;;5026459;28;20054;-80
2022/01/09 05:26:35;;;;;;;58.50;6.80;;;;;;;;;;5027488;28;20144;-79
2022/01/09 05:29:01;;;;;;;63.35;7.00;;;;;;;;;;5025032;28;20042;-79
2022/01/09 05:31:27;;;;;;;56.60;8.02;;;;;;;;;;5027603;28;20049;-78
2022/01/09 05:33:53;;;;;;;73.18;8.38;;;;;;;;;;5025630;28;20056;-78
2022/01/09 05:36:19;;;;;;;79.03;9.40;;;;;;;;;;5025126;28;20128;-78
2022/01/09 05:38:45;;;;;;;58.67;7.07;;;;;;;;;;5027198;28;20064;-78
2022/01/09 05:41:11;;;;;;;60.10;7.25;;;;;;;;;;5025642;28;20098;-78
2022/01/09 05:43:39;;;;;;;56.40;8.27;;;;;;;;;;5360973;23;20061;-79
2022/01/09 05:46:06;;;;;;;50.95;5.75;;;;;;;;;;5043499;28;20136;-78
2022/01/09 05:48:32;;;;;;;45.40;6.70;;;;;;;;;;5049016;28;20033;-79
2022/01/09 05:50:58;;;;;;;56.95;7.38;;;;;;;;;;5047968;28;20056;-79
2022/01/09 05:53:24;;;;;;;59.75;6.55;;;;;;;;;;5031892;28;20079;-80
2022/01/09 05:55:50;;;;;;;46.53;5.13;;;;;;;;;;5029406;28;20055;-79
2022/01/09 05:58:17;;;;;;;53.88;6.13;;;;;;;;;;5048981;28;20202;-79
2022/01/09 06:00:43;;;;;;;45.28;5.90;;;;;;;;;;5047442;28;20116;-79
2022/01/09 06:03:09;;;;;;;38.53;5.50;;;;;;;;;;5048298;28;20079;-82
2022/01/09 06:05:35;;;;;;;46.42;6.18;;;;;;;;;;5030602;28;20500;-80
2022/01/09 06:08:01;;;;;;;58.90;6.95;;;;;;;;;;5029808;28;20496;-81
2022/01/09 06:10:27;;;;;;;53.50;5.78;;;;;;;;;;5030129;28;20041;-79
2022/01/09 06:12:53;;;;;;;29.58;5.05;;;;;;;;;;5029278;28;20512;-78
2022/01/09 06:15:19;;;;;;;41.15;6.07;;;;;;;;;;5030521;28;20126;-79
2022/01/09 06:17:45;;;;;;;49.55;5.03;;;;;;;;;;5027397;28;20518;-82
2022/01/09 06:20:13;;;;;;;41.65;4.80;;;;;;;;;;5028571;28;20068;-78
2022/01/09 06:22:40;;;;;;;41.22;4.60;;;;;;;;;;5010871;28;20061;-80
2022/01/09 06:25:06;;;;;;;25.58;4.00;;;;;;;;;;5028058;28;20037;-80
2022/01/09 06:27:32;;;;;;;37.97;4.78;;;;;;;;;;5048411;28;20123;-78
2022/01/09 06:29:58;;;;;;;40.20;4.88;;;;;;;;;;5029329;28;20833;-80
2022/01/09 06:32:24;;;;;;;48.70;4.85;;;;;;;;;;5030368;28;20539;-80
2022/01/09 06:34:50;;;;;;;38.97;5.82;;;;;;;;;;5029339;28;20038;-79
2022/01/09 06:37:16;;;;;;;42.20;6.15;;;;;;;;;;5030622;28;20068;-78
2022/01/09 06:39:43;;;;;;;25.35;3.58;;;;;;;;;;5029051;28;20051;-78
2022/01/09 06:42:10;;;;;;;48.95;5.50;;;;;;;;;;5047759;28;20084;-77
2022/01/09 06:44:36;;;;;;;28.88;4.05;;;;;;;;;;5026726;28;20094;-77
2022/01/09 06:47:02;;;;;;;36.72;5.32;;;;;;;;;;5024888;28;20059;-78
2022/01/09 06:49:28;;;;;;;32.88;4.22;;;;;;;;;;5029615;28;20132;-79
2022/01/09 06:51:54;;;;;;;35.60;4.93;;;;;;;;;;5023180;28;20046;-77
2022/01/09 06:54:21;;;;;;;35.33;4.65;;;;;;;;;;5028742;28;20436;-78
2022/01/09 06:56:47;;;;;;;39.78;4.82;;;;;;;;;;5027210;28;20055;-78
2022/01/09 06:59:13;;;;;;;42.58;5.13;;;;;;;;;;5017649;28;20136;-77
2022/01/09 07:01:39;;;;;;;35.55;4.10;;;;;;;;;;5031503;28;20045;-79
2022/01/09 07:04:05;;;;;;;32.05;4.53;;;;;;;;;;5019365;28;20038;-81
2022/01/09 07:06:31;;;;;;;39.80;5.00;;;;;;;;;;5013676;28;20045;-80
2022/01/09 07:08:57;;;;;;;33.15;4.28;;;;;;;;;;5025274;28;20048;-82
2022/01/09 07:11:24;;;;;;;34.03;5.28;;;;;;;;;;5038074;28;20040;-83
2022/01/09 07:13:50;;;;;;;35.13;4.35;;;;;;;;;;5023094;28;20526;-85
2022/01/09 07:16:16;;;;;;;26.67;3.50;;;;;;;;;;5043054;28;20940;-83
2022/01/09 07:18:42;;;;;;;30.52;4.68;;;;;;;;;;5038625;28;20048;-86
2022/01/09 07:21:08;;;;;;;38.13;4.80;;;;;;;;;;5044508;28;20064;-85
2022/01/09 07:23:34;;;;;;;32.67;4.30;;;;;;;;;;5047646;28;20033;-86
2022/01/09 07:26:00;;;;;;;29.05;4.13;;;;;;;;;;5024866;28;20052;-84
2022/01/09 07:28:26;;;;;;;44.80;4.50;;;;;;;;;;5047216;28;20094;-85
2022/01/09 07:30:52;;;;;;;33.70;5.43;;;;;;;;;;5021815;28;20076;-85
2022/01/09 07:33:18;;;;;;;27.77;4.75;;;;;;;;;;5037786;28;20091;-79
2022/01/09 07:35:44;;;;;;;32.38;3.60;;;;;;;;;;5025436;28;20041;-77
2022/01/09 07:38:10;;;;;;;27.50;3.38;;;;;;;;;;5024761;28;20048;-78
2022/01/09 07:40:36;;;;;;;31.70;4.35;;;;;;;;;;5043067;28;20490;-82
2022/01/09 07:43:03;;;;;;;26.85;4.50;;;;;;;;;;5031864;28;20041;-77
2022/01/09 07:45:29;;;;;;;38.58;4.45;;;;;;;;;;5020612;28;20056;-77
2022/01/09 07:47:56;;;;;;;23.00;4.15;;;;;;;;;;5007929;28;20065;-78
2022/01/09 07:50:23;;;;;;;23.25;3.47;;;;;;;;;;5044236;28;20045;-77
2022/01/09 07:52:50;;;;;;;30.20;3.63;;;;;;;;;;5031535;28;20033;-78
2022/01/09 07:55:18;;;;;;;33.72;3.78;;;;;;;;;;5035370;28;20088;-78
2022/01/09 07:57:51;;;;;;;22.48;3.65;;;;;;;;;;5043220;28;20120;-77
2022/01/09 08:00:18;;;;;;;33.95;3.97;;;;;;;;;;5025073;28;20495;-77
2022/01/09 08:02:44;;;;;;;33.53;3.83;;;;;;;;;;5035036;28;20440;-76
2022/01/09 08:05:10;;;;;;;35.13;4.65;;;;;;;;;;5037274;28;20049;-77
2022/01/09 08:07:37;;;;;;;37.80;6.80;;;;;;;;;;5001109;28;20044;-77
2022/01/09 08:10:03;;;;;;;25.88;4.32;;;;;;;;;;5008781;28;20041;-77
2022/01/09 08:12:29;;;;;;;32.75;4.53;;;;;;;;;;5027648;28;20129;-77
2022/01/09 08:14:55;;;;;;;32.25;4.88;;;;;;;;;;5030766;28;20590;-77
2022/01/09 08:17:21;;;;;;;30.85;4.47;;;;;;;;;;5047911;28;20033;-78
2022/01/09 08:19:48;;;;;;;37.15;5.90;;;;;;;;;;5049456;28;20136;-78
2022/01/09 08:22:14;;;;;;;25.52;3.55;;;;;;;;;;5047196;28;20458;-79
2022/01/09 08:24:40;;;;;;;28.58;3.42;;;;;;;;;;5015019;28;20074;-79
2022/01/09 08:27:07;;;;;;;31.65;3.63;;;;;;;;;;5029437;28;20106;-79
2022/01/09 08:29:33;;;;;;;30.10;4.38;;;;;;;;;;5048665;28;20048;-78
2022/01/09 08:31:59;;;;;;;27.15;3.42;;;;;;;;;;5047897;28;20125;-79
2022/01/09 08:34:25;;;;;;;35.03;4.32;;;;;;;;;;5029788;28;20048;-78
2022/01/09 08:36:51;;;;;;;22.70;3.33;;;;;;;;;;5028957;28;20396;-77
2022/01/09 08:39:17;;;;;;;26.40;3.83;;;;;;;;;;5038735;28;20479;-77
2022/01/09 08:41:43;;;;;;;36.85;4.57;;;;;;;;;;5048773;28;20041;-76
2022/01/09 08:44:10;;;;;;;27.27;3.53;;;;;;;;;;5028811;28;20044;-78
2022/01/09 08:46:36;;;;;;;24.42;3.22;;;;;;;;;;5030469;28;20091;-77
2022/01/09 08:49:03;;;;;;;24.75;3.53;;;;;;;;;;5045802;28;20408;-77
2022/01/09 08:51:30;;;;;;;19.35;3.38;;;;;;;;;;5025663;28;20132;-78
2022/01/09 08:53:56;;;;;;;23.20;2.83;;;;;;;;;;4994381;28;20052;-78
2022/01/09 08:56:23;;;;;;;29.70;3.53;;;;;;;;;;5027167;28;20586;-79
2022/01/09 08:58:50;;;;;;;18.88;2.63;;;;;;;;;;5046276;28;20045;-76
2022/01/09 09:01:16;;;;;;;30.30;3.70;;;;;;;;;;5024543;28;20223;-77
2022/01/09 09:03:43;;;;;;;20.08;3.40;;;;;;;;;;5045409;28;20062;-79
2022/01/09 09:06:10;;;;;;;20.33;3.05;;;;;;;;;;5027045;28;20467;-77
2022/01/09 09:08:37;;;;;;;17.33;1.95;;;;;;;;;;5046743;28;20061;-77
2022/01/09 09:11:03;;;;;;;15.07;2.15;;;;;;;;;;5044867;28;20041;-77
2022/01/09 09:13:29;;;;;;;22.27;2.85;;;;;;;;;;5026576;28;20096;-78
2022/01/09 09:15:56;;;;;;;16.58;1.73;;;;;;;;;;5025915;28;20045;-77
2022/01/09 09:18:22;;;;;;;16.73;2.13;;;;;;;;;;5027164;28;20066;-78
2022/01/09 09:20:48;;;;;;;18.38;2.25;;;;;;;;;;5045144;28;20056;-78
2022/01/09 09:23:14;;;;;;;9.60;1.95;;;;;;;;;;5027464;28;20072;-78
2022/01/09 09:25:40;;;;;;;17.27;2.35;;;;;;;;;;5046933;28;20213;-80
2022/01/09 09:28:06;;;;;;;15.70;3.75;;;;;;;;;;5045233;28;20127;-77
2022/01/09 09:30:32;;;;;;;14.57;1.95;;;;;;;;;;5028259;28;20076;-78
2022/01/09 09:32:58;;;;;;;17.17;2.30;;;;;;;;;;5005365;28;20514;-82
2022/01/09 09:35:24;;;;;;;19.25;3.08;;;;;;;;;;5042246;28;20033;-78
2022/01/09 09:37:50;;;;;;;20.15;2.97;;;;;;;;;;5040294;28;20041;-84
2022/01/09 09:40:16;;;;;;;25.25;3.25;;;;;;;;;;5027046;28;20465;-82
2022/01/09 09:42:43;;;;;;;23.08;2.75;;;;;;;;;;5045102;28;20068;-84
2022/01/09 09:45:10;;;;;;;28.80;4.10;;;;;;;;;;5026648;28;20065;-83
2022/01/09 09:47:37;;;;;;;29.77;3.58;;;;;;;;;;5027735;28;20052;-81
2022/01/09 09:50:05;;;;;;;34.60;4.03;;;;;;;;;;5025226;28;20102;-80
2022/01/09 09:52:31;;;;;;;27.60;3.60;;;;;;;;;;5044138;28;20044;-77
2022/01/09 09:54:57;;;;;;;27.00;3.10;;;;;;;;;;5025417;28;20045;-80
2022/01/09 09:57:24;;;;;;;29.15;3.25;;;;;;;;;;5025731;28;20044;-82
2022/01/09 09:59:50;;;;;;;18.67;2.78;;;;;;;;;;5027345;28;20037;-84
2022/01/09 10:02:17;;;;;;;16.77;2.75;;;;;;;;;;5043976;28;20399;-82
2022/01/09 10:05:02;;;;;;;26.40;3.42;;;;;;;;;;5025201;28;20029;-80
2022/01/09 10:07:28;;;;;;;32.22;3.60;;;;;;;;;;5026607;28;20512;-81
2022/01/09 10:09:59;;;;;;;23.23;3.22;;;;;;;;;;5044213;28;20171;-85
2022/01/09 10:12:26;;;;;;;33.85;3.67;;;;;;;;;;5045576;28;20041;-84
2022/01/09 10:14:54;;;;;;;34.92;3.85;;;;;;;;;;5041107;28;20033;-79
2022/01/09 10:17:20;;;;;;;22.27;3.40;;;;;;;;;;5045848;28;20049;-78
2022/01/09 10:19:54;;;;;;;26.73;3.83;;;;;;;;;;5024902;28;20106;-79
2022/01/09 10:22:29;;;;;;;24.77;3.47;;;;;;;;;;5043138;28;20041;-77
2022/01/09 10:24:58;;;;;;;21.20;3.17;;;;;;;;;;5046308;28;20049;-78
2022/01/09 10:27:28;;;;;;;31.25;4.28;;;;;;;;;;5019408;28;20048;-77
2022/01/09 10:29:55;;;;;;;29.00;3.50;;;;;;;;;;5045970;28;20049;-77
2022/01/09 10:32:25;;;;;;;26.95;4.70;;;;;;;;;;5009473;28;20495;-78
2022/01/09 10:35:12;;;;;;;27.42;4.13;;;;;;;;;;5045242;28;20532;-77
2022/01/09 10:37:39;;;;;;;24.25;3.65;;;;;;;;;;5043393;28;20040;-80
2022/01/09 10:40:06;;;;;;;28.92;4.43;;;;;;;;;;5026556;28;20103;-79
2022/01/09 10:42:32;;;;;;;25.05;3.67;;;;;;;;;;5042719;28;20071;-83
2022/01/09 10:45:19;;;;;;;21.67;3.63;;;;;;;;;;5045091;28;20052;-77
2022/01/09 10:47:45;;;;;;;20.52;3.03;;;;;;;;;;5036993;28;20513;-76
2022/01/09 10:50:23;;;;;;;22.50;4.00;;;;;;;;;;5025913;28;20049;-80
2022/01/09 10:52:49;;;;;;;18.20;2.92;;;;;;;;;;5041487;28;20409;-78
2022/01/09 10:55:15;;;;;;;21.38;3.80;;;;;;;;;;5053808;28;20053;-77
2022/01/09 10:57:42;;;;;;;23.17;3.55;;;;;;;;;;5043895;28;20531;-78
2022/01/09 11:00:10;;;;;;;27.17;3.00;;;;;;;;;;5045266;28;20090;-78
2022/01/09 11:02:36;;;;;;;20.48;2.95;;;;;;;;;;5039828;28;20048;-77
2022/01/09 11:05:03;;;;;;;22.08;3.80;;;;;;;;;;5043770;28;20523;-79
2022/01/09 11:07:32;;;;;;;23.70;3.63;;;;;;;;;;5046831;28;20121;-77
2022/01/09 11:09:59;;;;;;;20.67;3.22;;;;;;;;;;5046763;28;20056;-79
2022/01/09 11:12:35;;;;;;;17.80;2.95;;;;;;;;;;5045057;28;20488;-83
2022/01/09 11:15:04;;;;;;;18.83;2.60;;;;;;;;;;5040765;28;20099;-78
2022/01/09 11:17:30;;;;;;;18.20;3.42;;;;;;;;;;5041420;28;20033;-78
2022/01/09 11:19:57;;;;;;;21.80;2.90;;;;;;;;;;5041854;28;20045;-79
2022/01/09 11:22:23;;;;;;;24.27;2.83;;;;;;;;;;5041405;28;20045;-80
2022/01/09 11:25:12;;;;;;;18.52;3.33;;;;;;;;;;5039765;28;20036;-79
2022/01/09 11:27:47;;;;;;;22.15;3.33;;;;;;;;;;5023785;28;20458;-78
2022/01/09 11:30:17;;;;;;;22.00;3.78;;;;;;;;;;5045063;28;20053;-78
2022/01/09 11:32:43;;;;;;;16.13;2.65;;;;;;;;;;5042987;28;20060;-77
2022/01/09 11:35:13;;;;;;;20.40;2.97;;;;;;;;;;5046162;28;20120;-78
2022/01/09 11:37:57;;;;;;;10.45;2.38;;;;;;;;;;5046026;28;20049;-78
2022/01/09 11:40:25;;;;;;;19.80;2.65;;;;;;;;;;5048255;28;20049;-84
2022/01/09 11:43:14;;;;;;;19.23;3.65;;;;;;;;;;5029738;28;20137;-81
2022/01/09 11:45:40;;;;;;;26.27;4.15;;;;;;;;;;5026629;28;20064;-83
2022/01/09 11:48:06;;;;;;;17.90;3.20;;;;;;;;;;5029108;28;20579;-81
2022/01/09 11:50:33;;;;;;;16.33;3.30;;;;;;;;;;5044895;28;20037;-80
2022/01/09 11:53:01;;;;;;;20.10;3.60;;;;;;;;;;5027014;28;20400;-80
2022/01/09 11:55:34;;;;;;;22.40;2.65;;;;;;;;;;5028124;28;20055;-81
2022/01/09 11:58:03;;;;;;;24.17;2.67;;;;;;;;;;5043787;28;20045;-79
2022/01/09 12:00:34;;;;;;;20.67;3.05;;;;;;;;;;5010243;28;20120;-83
2022/01/09 12:03:01;;;;;;;14.77;3.38;;;;;;;;;;5041658;28;20413;-84
2022/01/09 12:05:27;;;;;;;22.27;4.03;;;;;;;;;;5046294;28;20445;-83
2022/01/09 12:07:53;;;;;;;15.32;3.38;;;;;;;;;;5046161;28;20052;-80
2022/01/09 12:10:31;;;;;;;18.58;2.90;;;;;;;;;;5029915;28;20057;-80
2022/01/09 12:12:57;;;;;;;17.48;3.00;;;;;;;;;;5046935;28;20049;-83
2022/01/09 12:15:39;;;;;;;23.55;3.25;;;;;;;;;;5026086;28;20075;-79
2022/01/09 12:18:07;;;;;;;23.88;3.17;;;;;;;;;;5046329;28;20055;-84
2022/01/09 12:20:39;;;;;;;24.50;4.03;;;;;;;;;;5027239;28;20089;-82
2022/01/09 12:23:06;;;;;;;21.20;3.22;;;;;;;;;;5046013;28;20041;-84
2022/01/09 12:25:35;;;;;;;17.40;4.15;;;;;;;;;;5045398;28;20123;-84
2022/01/09 12:28:11;;;;;;;15.65;3.20;;;;;;;;;;5047303;28;20060;-83
2022/01/09 12:30:41;;;;;;;20.10;2.88;;;;;;;;;;5028427;28;20482;-84
2022/01/09 12:33:15;;;;;;;17.17;3.00;;;;;;;;;;5045076;28;20044;-81
2022/01/09 12:35:57;;;;;;;14.43;2.78;;;;;;;;;;5028929;28;20071;-81
2022/01/09 12:38:24;;;;;;;16.23;2.83;;;;;;;;;;5027171;28;20124;-83
2022/01/09 12:41:01;;;;;;;24.73;2.72;;;;;;;;;;5046596;28;20049;-83
2022/01/09 12:43:28;;;;;;;27.60;3.53;;;;;;;;;;5024601;28;20036;-80
2022/01/09 12:45:54;;;;;;;15.83;4.07;;;;;;;;;;5004139;28;1116842;-80
2022/01/09 12:48:25;;;;;;;15.15;2.65;;;;;;;;;;5029686;28;20294;-79
2022/01/09 12:50:52;;;;;;;17.85;2.90;;;;;;;;;;5045087;28;20408;-81
2022/01/09 12:53:24;;;;;;;18.25;3.08;;;;;;;;;;5036176;28;20048;-77
2022/01/09 12:56:04;;;;;;;15.85;3.05;;;;;;;;;;5055825;28;20040;-78
2022/01/09 12:58:33;;;;;;;10.32;1.85;;;;;;;;;;5021306;28;20508;-80
2022/01/09 13:01:00;;;;;;;10.13;2.03;;;;;;;;;;5048589;28;20048;-80
2022/01/09 13:03:30;;;;;;;19.65;4.00;;;;;;;;;;5041658;28;20076;-79
2022/01/09 13:06:14;;;;;;;16.48;2.13;;;;;;;;;;5026559;28;20127;-79
2022/01/09 13:08:48;;;;;;;17.35;2.58;;;;;;;;;;5040901;28;20041;-79
2022/01/09 13:11:15;;;;;;;16.30;2.70;;;;;;;;;;5027125;28;20041;-80
2022/01/09 13:13:43;;;;;;;19.08;3.05;;;;;;;;;;5044801;28;20072;-77
2022/01/09 13:16:33;;;;;;;15.57;3.55;;;;;;;;;;5028166;28;20048;-78
2022/01/09 13:19:07;;;;;;;17.15;2.83;;;;;;;;;;5028139;28;20103;-78
2022/01/09 13:21:35;;;;;;;24.77;4.43;;;;;;;;;;5025602;28;20040;-78
2022/01/09 13:24:30;;;;;;;20.77;3.30;;;;;;;;;;5046430;28;20041;-79
2022/01/09 13:26:56;;;;;;;;;;;;;;;;;;5044668;28;20126;-80
2022/01/09 13:29:29;;;;;;;20.45;3.03;;;;;;;;;;5027689;28;19940;-81
2022/01/09 13:31:56;;;;;;;17.15;3.38;;;;;;;;;;5028012;28;20041;-78
2022/01/09 13:34:29;;;;;;;20.05;3.75;;;;;;;;;;5044481;28;20039;-78
2022/01/09 13:36:57;;;;;;;26.40;2.37;;;;;;;;;;5024758;28;20057;-79
2022/01/09 13:39:24;;;;;;;15.65;3.15;;;;;;;;;;5043516;28;20037;-78
2022/01/09 13:41:57;;;;;;;12.00;2.55;;;;;;;;;;5027825;28;20480;-78
2022/01/09 13:44:28;;;;;;;20.10;3.03;;;;;;;;;;5045978;28;20082;-79
2022/01/09 13:47:05;;;;;;;22.80;2.78;;;;;;;;;;5026374;28;20433;-79
2022/01/09 13:49:36;;;;;;;17.83;2.78;;;;;;;;;;5027338;28;20075;-79
2022/01/09 13:52:31;;;;;;;14.27;2.58;;;;;;;;;;5026070;28;20460;-78
2022/01/09 13:55:02;;;;;;;17.38;2.75;;;;;;;;;;5022393;28;20235;-78
2022/01/09 13:57:29;;;;;;;18.88;3.58;;;;;;;;;;5045038;28;20057;-79
2022/01/09 13:59:56;;;;;;;19.77;3.53;;;;;;;;;;5041906;28;20056;-79
2022/01/09 14:02:23;;;;;;;20.38;3.10;;;;;;;;;;5026973;28;20116;-78
2022/01/09 14:05:07;;;;;;;18.52;3.75;;;;;;;;;;5043453;28;20388;-80
2022/01/09 14:07:36;;;;;;;;;;;;;;;;;;5008531;28;20083;-78
2022/01/09 14:10:02;;;;;;;17.40;2.70;;;;;;;;;;5043701;28;19924;-78
2022/01/09 14:12:30;;;;;;;16.65;2.67;;;;;;;;;;5007698;28;20041;-77
2022/01/09 14:14:56;;;;;;;18.17;2.60;;;;;;;;;;5026863;28;20510;-77
2022/01/09 14:17:33;;;;;;;15.70;2.70;;;;;;;;;;5044701;28;20037;-78
2022/01/09 14:20:22;;;;;;;19.70;3.30;;;;;;;;;;5044831;28;20045;-79
2022/01/09 14:22:53;;;;;;;13.50;2.10;;;;;;;;;;5017174;28;20110;-78
2022/01/09 14:25:27;;;;;;;20.13;3.05;;;;;;;;;;5026366;28;20511;-78
2022/01/09 14:27:53;;;;;;;15.30;3.00;;;;;;;;;;5028404;28;20044;-78
2022/01/09 14:30:21;;;;;;;13.70;2.60;;;;;;;;;;5022862;28;20429;-77
2022/01/09 14:32:49;;;;;;;13.02;2.85;;;;;;;;;;5044844;28;20124;-78
2022/01/09 14:35:25;;;;;;;24.42;3.33;;;;;;;;;;5043492;28;20481;-79